Time;durP1;ratioP1;P1;durP2;ratioP2;P2;SDS_P1;SDS_P2;PMS_P1;PMS_P2;Temp;Humidity;BMP_temperature;BMP_pressure;BME280_temperature;BME280_humidity;BME280_pressure;Samples;Min_cycle;Max_cycle;Signal;HPM_P1;HPM_P2
2023/04/02 00:00:35;;;;;;;1.00;0.80;;;7.10;99.90;;;;;;4989853;28;20050;-79
2023/04/02 00:03:09;;;;;;;1.25;0.90;;;7.20;99.90;;;;;;4965448;28;20043;-78
2023/04/02 00:05:49;;;;;;;0.90;0.90;;;7.20;99.90;;;;;;4963347;28;20028;-78
2023/04/02 00:08:24;;;;;;;0.73;0.70;;;7.20;99.90;;;;;;4972090;28;20102;-79
2023/04/02 00:10:51;;;;;;;1.20;0.80;;;7.20;99.90;;;;;;4968127;28;20042;-79
2023/04/02 00:13:17;;;;;;;1.50;0.85;;;7.20;99.90;;;;;;4987470;28;20051;-78
2023/04/02 00:15:50;;;;;;;0.68;0.68;;;7.20;99.90;;;;;;4963225;28;20046;-79
2023/04/02 00:18:18;;;;;;;0.75;0.75;;;7.20;99.90;;;;;;4969476;28;20043;-79
2023/04/02 00:20:49;;;;;;;0.70;0.70;;;7.30;99.90;;;;;;4966065;28;20038;-79
2023/04/02 00:23:14;;;;;;;1.08;0.80;;;7.20;99.90;;;;;;4960669;28;20115;-78
2023/04/02 00:25:44;;;;;;;1.52;0.90;;;7.20;99.90;;;;;;4961680;28;20073;-79
2023/04/02 00:28:15;;;;;;;0.60;0.60;;;7.30;99.90;;;;;;4964611;28;20553;-79
2023/04/02 00:30:54;;;;;;;0.80;0.80;;;7.20;99.90;;;;;;4966143;28;20050;-79
2023/04/02 00:33:24;;;;;;;2.17;1.10;;;7.20;99.90;;;;;;4964716;28;20039;-79
2023/04/02 00:35:52;;;;;;;0.85;0.80;;;7.20;99.90;;;;;;4962651;28;20058;-79
2023/04/02 00:38:23;;;;;;;0.82;0.75;;;7.20;99.90;;;;;;4970189;28;20058;-79
2023/04/02 00:40:51;;;;;;;0.70;0.70;;;7.20;99.90;;;;;;4964058;28;20047;-79
2023/04/02 00:43:17;;;;;;;0.83;0.83;;;7.20;99.90;;;;;;4964883;28;20035;-79
2023/04/02 00:45:49;;;;;;;1.17;0.82;;;7.30;99.90;;;;;;4960365;28;20027;-79
2023/04/02 00:48:35;;;;;;;0.70;0.70;;;7.20;99.90;;;;;;4966109;28;20035;-79
2023/04/02 00:51:14;;;;;;;0.68;0.68;;;7.30;99.90;;;;;;4968330;28;20094;-79
2023/04/02 00:53:43;;;;;;;0.80;0.80;;;7.20;99.90;;;;;;4977852;28;20061;-79
2023/04/02 00:56:39;;;;;;;0.80;0.80;;;7.20;99.90;;;;;;4974725;28;20486;-79
2023/04/02 00:59:24;;;;;;;1.05;0.95;;;7.20;99.90;;;;;;4968713;28;20447;-80
2023/04/02 01:01:53;;;;;;;0.73;0.73;;;7.20;99.90;;;;;;4961507;28;20047;-90
2023/04/02 01:04:33;;;;;;;1.80;0.80;;;7.20;99.90;;;;;;4976078;28;20378;-88
2023/04/02 01:07:06;;;;;;;0.80;0.80;;;7.20;99.90;;;;;;4973132;28;20046;-89
2023/04/02 01:10:05;;;;;;;0.98;0.98;;;7.20;99.90;;;;;;4967184;28;20027;-89
2023/04/02 01:12:51;;;;;;;0.90;0.90;;;7.10;99.90;;;;;;4953872;28;20059;-89
2023/04/02 01:15:23;;;;;;;0.75;0.70;;;7.10;99.90;;;;;;4973300;28;20035;-88
2023/04/02 01:18:25;;;;;;;0.73;0.73;;;7.10;99.90;;;;;;4983103;28;20046;-89
2023/04/02 01:20:56;;;;;;;0.75;0.75;;;7.10;99.90;;;;;;5010270;28;20045;-89
2023/04/02 01:23:36;;;;;;;0.80;0.80;;;7.10;99.90;;;;;;4971006;28;20062;-89
2023/04/02 01:26:22;;;;;;;1.13;1.00;;;7.10;99.90;;;;;;4958748;28;20078;-89
2023/04/02 01:29:09;;;;;;;0.95;0.95;;;7.10;99.90;;;;;;4965543;28;20043;-90
2023/04/02 01:31:37;;;;;;;1.10;1.00;;;7.10;99.90;;;;;;4971429;28;20134;-88
2023/04/02 01:34:06;;;;;;;0.60;0.60;;;7.10;99.90;;;;;;4962671;28;20039;-89
2023/04/02 01:36:42;;;;;;;0.80;0.80;;;7.10;99.90;;;;;;4967349;28;20069;-88
2023/04/02 01:39:23;;;;;;;0.93;0.80;;;7.10;99.90;;;;;;4979281;28;20120;-88
2023/04/02 01:42:04;;;;;;;0.73;0.70;;;7.10;99.90;;;;;;4971057;28;20114;-87
2023/04/02 01:45:18;;;;;;;0.90;0.90;;;7.10;99.90;;;;;;4955029;28;20023;-89
2023/04/02 01:47:45;;;;;;;0.88;0.88;;;7.10;99.90;;;;;;4964052;28;20061;-88
2023/04/02 01:50:31;;;;;;;0.90;0.90;;;7.10;99.90;;;;;;4963218;28;20043;-89
2023/04/02 01:53:00;;;;;;;1.00;1.00;;;7.00;99.90;;;;;;4966030;29;20043;-89
2023/04/02 01:55:31;;;;;;;0.90;0.90;;;7.00;99.90;;;;;;4962432;28;20039;-88
2023/04/02 01:57:59;;;;;;;0.95;0.90;;;7.00;99.90;;;;;;4965378;28;20059;-89
2023/04/02 02:00:28;;;;;;;0.88;0.85;;;7.00;99.90;;;;;;4958830;28;20039;-88
2023/04/02 02:02:55;;;;;;;1.33;0.82;;;6.90;99.90;;;;;;4962939;28;20032;-89
2023/04/02 02:05:22;;;;;;;1.88;0.90;;;6.90;99.90;;;;;;4973402;28;20043;-89
2023/04/02 02:07:49;;;;;;;0.77;0.77;;;6.90;99.90;;;;;;4971761;28;20039;-88
2023/04/02 02:10:21;;;;;;;1.73;0.88;;;7.00;99.90;;;;;;4958517;28;20031;-89
2023/04/02 02:12:47;;;;;;;1.42;0.80;;;6.90;99.90;;;;;;4979677;28;20478;-89
2023/04/02 02:15:22;;;;;;;0.95;0.90;;;6.90;99.90;;;;;;4960811;28;20038;-88
2023/04/02 02:17:49;;;;;;;0.90;0.90;;;6.90;99.90;;;;;;4961601;28;20106;-88
2023/04/02 02:20:16;;;;;;;2.47;0.95;;;6.90;99.90;;;;;;4974451;28;20007;-88
2023/04/02 02:22:50;;;;;;;1.77;1.20;;;6.90;99.90;;;;;;4966067;28;20015;-89
2023/04/02 02:25:23;;;;;;;0.93;0.93;;;6.90;99.90;;;;;;4965382;28;20028;-88
2023/04/02 02:27:55;;;;;;;1.33;1.10;;;6.90;99.90;;;;;;4964298;28;20037;-88
2023/04/02 02:30:29;;;;;;;1.88;1.00;;;6.90;99.90;;;;;;4969989;28;20028;-89
2023/04/02 02:33:02;;;;;;;1.35;0.88;;;6.90;99.90;;;;;;4972910;28;20023;-88
2023/04/02 02:35:48;;;;;;;0.93;0.93;;;6.90;99.90;;;;;;4959904;28;20034;-88
2023/04/02 02:38:40;;;;;;;0.98;0.98;;;6.90;99.90;;;;;;4971886;28;20086;-88
2023/04/02 02:41:34;;;;;;;0.98;0.98;;;6.90;99.90;;;;;;4932685;28;20135;-88
2023/04/02 02:44:09;;;;;;;0.80;0.80;;;6.90;99.90;;;;;;4962892;28;20043;-89
2023/04/02 02:46:45;;;;;;;2.55;1.20;;;6.90;99.90;;;;;;4966446;28;20110;-90
2023/04/02 02:49:18;;;;;;;1.00;1.00;;;6.90;99.90;;;;;;4973233;28;20054;-88
2023/04/02 02:51:54;;;;;;;0.98;0.90;;;6.90;99.90;;;;;;4966421;28;20044;-88
2023/04/02 02:54:20;;;;;;;1.13;0.88;;;6.90;99.90;;;;;;4973441;28;20027;-88
2023/04/02 02:56:52;;;;;;;1.60;1.10;;;6.90;99.90;;;;;;4962322;28;20036;-88
2023/04/02 02:59:19;;;;;;;0.95;0.95;;;6.90;99.90;;;;;;4970745;28;20121;-88
2023/04/02 03:01:46;;;;;;;1.17;1.07;;;6.80;99.90;;;;;;4965612;28;20038;-88
2023/04/02 03:04:13;;;;;;;1.13;1.00;;;6.80;99.90;;;;;;4976527;28;20053;-89
2023/04/02 03:06:40;;;;;;;1.15;1.15;;;6.80;99.90;;;;;;4975849;28;20110;-88
2023/04/02 03:09:32;;;;;;;0.95;0.93;;;6.80;99.90;;;;;;4971266;28;20039;-88
2023/04/02 03:12:27;;;;;;;0.85;0.85;;;6.80;99.90;;;;;;4979800;28;20039;-88
2023/04/02 03:15:12;;;;;;;0.70;0.70;;;6.80;99.90;;;;;;4940903;28;20051;-90
2023/04/02 03:17:50;;;;;;;1.55;0.90;;;6.80;99.90;;;;;;4972417;28;20050;-89
2023/04/02 03:20:30;;;;;;;0.90;0.90;;;6.80;99.90;;;;;;4975272;28;20046;-89
2023/04/02 03:23:07;;;;;;;0.90;0.90;;;6.80;99.90;;;;;;4964419;28;20399;-88
2023/04/02 03:25:46;;;;;;;1.03;0.83;;;6.80;99.90;;;;;;4960231;28;20126;-88
2023/04/02 03:28:18;;;;;;;2.63;1.10;;;6.80;99.90;;;;;;4972363;28;20297;-87
2023/04/02 03:30:51;;;;;;;0.85;0.85;;;6.80;99.90;;;;;;4968351;28;20050;-88
2023/04/02 03:33:26;;;;;;;0.98;0.98;;;6.80;99.90;;;;;;4999253;28;20042;-88
2023/04/02 03:36:15;;;;;;;1.08;0.93;;;6.70;99.90;;;;;;4987422;28;20062;-87
2023/04/02 03:38:45;;;;;;;0.90;0.90;;;6.70;99.90;;;;;;4964692;28;20027;-88
2023/04/02 03:41:26;;;;;;;0.73;0.73;;;6.80;99.90;;;;;;4967841;28;20031;-88
2023/04/02 03:43:59;;;;;;;1.00;1.00;;;6.70;99.90;;;;;;4971395;28;20043;-87
2023/04/02 03:46:39;;;;;;;1.05;0.95;;;6.70;99.90;;;;;;4972935;28;20161;-88
2023/04/02 03:49:10;;;;;;;1.00;0.90;;;6.70;99.90;;;;;;4966138;28;20039;-88
2023/04/02 03:51:50;;;;;;;1.10;1.00;;;6.70;99.90;;;;;;4969428;28;20039;-88
2023/04/02 03:54:16;;;;;;;1.15;0.93;;;6.70;99.90;;;;;;4956787;28;20103;-88
2023/04/02 03:56:46;;;;;;;1.02;1.00;;;6.70;99.90;;;;;;4967325;28;20026;-88
2023/04/02 03:59:26;;;;;;;1.13;1.00;;;6.60;99.90;;;;;;4971666;28;20043;-87
2023/04/02 04:02:09;;;;;;;0.90;0.90;;;6.60;99.90;;;;;;4981762;28;20043;-88
2023/04/02 04:04:39;;;;;;;3.40;1.10;;;6.60;99.90;;;;;;4965304;28;20068;-87
2023/04/02 04:07:10;;;;;;;1.58;0.70;;;6.50;99.90;;;;;;4970999;28;20062;-88
2023/04/02 04:09:37;;;;;;;1.58;0.90;;;6.50;99.90;;;;;;4966977;28;20027;-86
2023/04/02 04:12:20;;;;;;;3.70;1.00;;;6.50;99.90;;;;;;4965045;28;20050;-88
2023/04/02 04:14:56;;;;;;;1.30;1.20;;;6.60;99.90;;;;;;4969085;28;20055;-89
2023/04/02 04:17:33;;;;;;;1.48;0.90;;;6.60;99.90;;;;;;4968277;28;20024;-87
2023/04/02 04:20:10;;;;;;;0.80;0.80;;;6.60;99.90;;;;;;4981624;28;20065;-88
2023/04/02 04:22:36;;;;;;;1.20;1.10;;;6.50;99.90;;;;;;4971660;28;20164;-87
2023/04/02 04:25:07;;;;;;;1.00;1.00;;;6.50;99.90;;;;;;4992876;28;20046;-88
2023/04/02 04:27:43;;;;;;;1.83;0.95;;;6.50;99.90;;;;;;4966580;28;20007;-87
2023/04/02 04:30:33;;;;;;;1.02;0.93;;;6.40;99.90;;;;;;4971167;28;20043;-87
2023/04/02 04:33:09;;;;;;;1.05;0.98;;;6.40;99.90;;;;;;4989551;28;20035;-88
2023/04/02 04:35:45;;;;;;;1.25;1.10;;;6.30;99.90;;;;;;4982187;28;20093;-88
2023/04/02 04:38:14;;;;;;;2.50;0.90;;;6.30;99.90;;;;;;4987540;28;20034;-87
2023/04/02 04:41:00;;;;;;;;;;;6.30;99.90;;;;;;4994966;28;20022;-87
2023/04/02 04:43:45;;;;;;;2.30;1.10;;;6.20;99.90;;;;;;4989063;28;19965;-87
2023/04/02 04:46:41;;;;;;;1.30;1.25;;;6.20;99.90;;;;;;4980187;28;20027;-87
2023/04/02 04:49:40;;;;;;;1.40;1.30;;;6.10;99.90;;;;;;4988543;28;20027;-87
2023/04/02 04:52:24;;;;;;;1.10;1.10;;;6.10;99.90;;;;;;4986970;28;20049;-88
2023/04/02 04:54:50;;;;;;;0.90;0.90;;;6.10;99.90;;;;;;4984028;28;20439;-88
2023/04/02 04:57:36;;;;;;;1.88;0.90;;;6.00;99.90;;;;;;4979502;28;20037;-87
2023/04/02 05:00:37;;;;;;;1.30;0.95;;;6.00;99.90;;;;;;4980117;28;20042;-87
2023/04/02 05:03:27;;;;;;;1.00;1.00;;;6.00;99.90;;;;;;4967735;28;20046;-87
2023/04/02 05:05:53;;;;;;;0.88;0.85;;;6.00;99.90;;;;;;4989010;28;20134;-89
2023/04/02 05:08:26;;;;;;;1.10;1.10;;;5.90;99.90;;;;;;4966076;28;20038;-87
2023/04/02 05:10:59;;;;;;;1.40;1.30;;;5.90;99.90;;;;;;4973024;28;20015;-88
2023/04/02 05:13:37;;;;;;;2.05;1.20;;;5.90;99.90;;;;;;4971828;28;20047;-87
2023/04/02 05:16:20;;;;;;;1.05;0.98;;;5.90;99.90;;;;;;4975181;28;20035;-87
2023/04/02 05:18:51;;;;;;;3.15;1.88;;;5.90;99.90;;;;;;4967037;28;20039;-87
2023/04/02 05:21:23;;;;;;;0.90;0.90;;;5.90;99.90;;;;;;4978687;28;20031;-87
2023/04/02 05:23:59;;;;;;;1.15;1.05;;;5.90;99.90;;;;;;4960956;28;20055;-88
2023/04/02 05:26:29;;;;;;;2.10;1.10;;;5.90;99.90;;;;;;4990980;28;20098;-87
2023/04/02 05:29:09;;;;;;;0.88;0.88;;;5.90;99.90;;;;;;4975581;28;20035;-88
2023/04/02 05:31:56;;;;;;;1.20;1.20;;;5.80;99.90;;;;;;4965449;28;20107;-88
2023/04/02 05:34:26;;;;;;;1.25;1.10;;;5.80;99.90;;;;;;4969803;28;20111;-86
2023/04/02 05:36:54;;;;;;;1.08;1.08;;;5.80;99.90;;;;;;4968987;28;20050;-86
2023/04/02 05:39:23;;;;;;;0.90;0.90;;;5.80;99.90;;;;;;4965485;28;20043;-87
2023/04/02 05:41:56;;;;;;;;;;;5.80;99.90;;;;;;4968015;28;20039;-88
2023/04/02 05:44:28;;;;;;;1.20;1.10;;;5.90;99.90;;;;;;4995568;28;20042;-88
2023/04/02 05:47:11;;;;;;;2.97;1.20;;;5.90;99.90;;;;;;4970282;28;20036;-87
2023/04/02 05:49:55;;;;;;;1.05;1.05;;;5.90;99.90;;;;;;4960690;28;20038;-87
2023/04/02 05:52:31;;;;;;;1.00;1.00;;;5.90;99.90;;;;;;4964427;28;20095;-87
2023/04/02 05:55:01;;;;;;;1.30;1.20;;;6.00;99.90;;;;;;4964032;28;20108;-87
2023/04/02 05:57:50;;;;;;;1.02;0.90;;;6.00;99.90;;;;;;4986167;28;20034;-87
2023/04/02 06:00:38;;;;;;;1.58;1.20;;;6.10;99.90;;;;;;4975551;28;20034;-87
2023/04/02 06:03:28;;;;;;;1.10;1.05;;;6.10;99.90;;;;;;4973558;28;20031;-87
2023/04/02 06:06:07;;;;;;;1.75;1.20;;;6.20;99.90;;;;;;4967528;28;20042;-86
2023/04/02 06:08:38;;;;;;;1.13;1.13;;;6.30;99.90;;;;;;4969897;28;20031;-87
2023/04/02 06:11:13;;;;;;;1.00;1.00;;;6.40;99.90;;;;;;4959780;28;20036;-86
2023/04/02 06:13:38;;;;;;;2.33;1.15;;;6.40;99.90;;;;;;4968911;28;20039;-87
2023/04/02 06:16:05;;;;;;;1.50;1.40;;;6.50;99.90;;;;;;4967216;28;20036;-88
2023/04/02 06:18:35;;;;;;;1.10;1.10;;;6.50;99.90;;;;;;4966819;28;21005;-87
2023/04/02 06:21:01;;;;;;;1.73;1.33;;;6.50;99.90;;;;;;4973536;28;20086;-86
2023/04/02 06:23:31;;;;;;;1.20;1.13;;;6.60;99.90;;;;;;4969214;28;20047;-87
2023/04/02 06:26:00;;;;;;;1.70;1.20;;;6.70;99.90;;;;;;4964195;28;20095;-88
2023/04/02 06:28:44;;;;;;;1.45;1.30;;;6.70;99.90;;;;;;4985135;28;20095;-88
2023/04/02 06:31:29;;;;;;;1.23;1.13;;;6.70;99.90;;;;;;4969259;28;20459;-88
2023/04/02 06:33:55;;;;;;;0.93;0.93;;;6.80;99.90;;;;;;4969076;28;20023;-86
2023/04/02 06:36:26;;;;;;;2.00;1.10;;;6.90;99.90;;;;;;4966393;28;20123;-86
2023/04/02 06:38:56;;;;;;;1.95;1.35;;;6.90;99.90;;;;;;4974539;28;20027;-86
2023/04/02 06:41:24;;;;;;;1.08;1.05;;;6.90;99.90;;;;;;4982575;28;20370;-86
2023/04/02 06:44:09;;;;;;;1.25;1.15;;;6.90;99.90;;;;;;5000822;28;20036;-83
2023/04/02 06:46:52;;;;;;;1.05;1.00;;;6.90;99.90;;;;;;4969646;28;20046;-87
2023/04/02 06:49:39;;;;;;;1.90;1.10;;;7.00;99.90;;;;;;4967171;28;20047;-87
2023/04/02 06:52:14;;;;;;;2.42;1.15;;;7.10;99.90;;;;;;4964455;28;20042;-86
2023/04/02 06:54:39;;;;;;;1.30;1.20;;;7.00;99.90;;;;;;4976385;28;20035;-85
2023/04/02 06:57:06;;;;;;;1.85;1.15;;;7.10;99.90;;;;;;4966635;28;20134;-87
2023/04/02 06:59:32;;;;;;;0.90;0.90;;;7.10;99.90;;;;;;4977217;28;20035;-86
2023/04/02 07:02:02;;;;;;;0.82;0.82;;;7.10;99.90;;;;;;4972518;28;20185;-86
2023/04/02 07:04:28;;;;;;;0.95;0.95;;;7.20;99.90;;;;;;4976750;28;20055;-85
2023/04/02 07:06:54;;;;;;;1.35;0.95;;;7.30;99.90;;;;;;4966670;28;20050;-85
2023/04/02 07:09:21;;;;;;;1.02;1.02;;;7.40;99.90;;;;;;4972416;28;20027;-87
2023/04/02 07:11:46;;;;;;;1.20;1.17;;;7.30;99.90;;;;;;4971193;28;20031;-85
2023/04/02 07:14:13;;;;;;;1.00;1.00;;;7.40;99.90;;;;;;4970162;28;20041;-85
2023/04/02 07:16:39;;;;;;;1.20;1.15;;;7.40;99.90;;;;;;4966195;28;20511;-86
2023/04/02 07:19:05;;;;;;;2.22;1.02;;;7.50;99.90;;;;;;4970218;28;20031;-87
2023/04/02 07:21:31;;;;;;;1.50;1.10;;;7.60;99.90;;;;;;4970492;28;20480;-87
2023/04/02 07:23:57;;;;;;;1.70;1.30;;;7.60;99.90;;;;;;4967716;28;20062;-87
2023/04/02 07:26:26;;;;;;;1.85;1.20;;;7.70;99.90;;;;;;4968928;28;20063;-87
2023/04/02 07:28:53;;;;;;;1.38;1.27;;;7.90;99.90;;;;;;4968588;28;20039;-85
2023/04/02 07:31:23;;;;;;;1.25;1.15;;;8.20;99.90;;;;;;4958854;28;20046;-86
2023/04/02 07:33:49;;;;;;;1.15;1.00;;;8.30;99.90;;;;;;4977044;28;20480;-86
2023/04/02 07:36:21;;;;;;;1.30;1.20;;;8.40;99.90;;;;;;4968753;28;20035;-81
2023/04/02 07:38:47;;;;;;;1.30;1.30;;;8.40;99.90;;;;;;4968040;28;20072;-86
2023/04/02 07:41:14;;;;;;;3.47;1.30;;;8.40;99.90;;;;;;4969144;28;20050;-84
2023/04/02 07:43:41;;;;;;;1.35;1.30;;;8.40;99.90;;;;;;4973030;28;20031;-84
2023/04/02 07:46:07;;;;;;;1.50;1.30;;;8.50;99.90;;;;;;4967589;28;20023;-85
2023/04/02 07:48:33;;;;;;;1.25;1.15;;;8.30;99.90;;;;;;4977219;28;20050;-85
2023/04/02 07:51:02;;;;;;;2.05;1.23;;;8.30;99.90;;;;;;4964401;28;20392;-84
2023/04/02 07:53:33;;;;;;;1.33;1.23;;;8.30;99.90;;;;;;4972095;28;20035;-85
2023/04/02 07:56:00;;;;;;;2.08;1.23;;;8.50;99.90;;;;;;4967451;28;20123;-84
2023/04/02 07:58:28;;;;;;;1.20;1.10;;;8.60;99.90;;;;;;4971071;28;20034;-84
2023/04/02 08:00:54;;;;;;;1.85;1.40;;;8.90;99.90;;;;;;4963778;28;20051;-85
2023/04/02 08:03:20;;;;;;;2.28;1.50;;;9.10;99.90;;;;;;4972197;28;20035;-84
2023/04/02 08:05:55;;;;;;;1.27;1.17;;;9.30;99.90;;;;;;4978365;28;20043;-84
2023/04/02 08:08:22;;;;;;;1.35;1.10;;;9.30;99.90;;;;;;4965161;28;20034;-85
2023/04/02 08:10:47;;;;;;;1.10;1.10;;;9.40;99.90;;;;;;4976117;28;20046;-86
2023/04/02 08:13:14;;;;;;;0.90;0.90;;;9.50;99.90;;;;;;4974268;28;20031;-89
2023/04/02 08:15:40;;;;;;;1.98;1.40;;;9.30;99.90;;;;;;4965517;28;20039;-82
2023/04/02 08:18:06;;;;;;;2.15;1.20;;;9.20;99.90;;;;;;4970932;28;20381;-80
2023/04/02 08:20:31;;;;;;;2.95;1.25;;;9.10;99.90;;;;;;4964209;28;20043;-77
2023/04/02 08:23:00;;;;;;;1.42;1.33;;;9.10;99.90;;;;;;4969342;28;20063;-80
2023/04/02 08:25:26;;;;;;;1.30;1.20;;;9.10;99.90;;;;;;4966911;28;20047;-81
2023/04/02 08:27:52;;;;;;;1.10;1.10;;;9.10;99.90;;;;;;4969953;28;20039;-80
2023/04/02 08:30:18;;;;;;;4.20;1.88;;;9.30;99.90;;;;;;4969966;28;20055;-81
2023/04/02 08:32:44;;;;;;;4.18;1.35;;;9.20;99.90;;;;;;4977719;28;20049;-80
2023/04/02 08:35:12;;;;;;;1.45;1.30;;;9.30;99.90;;;;;;4974037;28;20050;-80
2023/04/02 08:37:38;;;;;;;3.35;1.40;;;9.30;99.90;;;;;;4971254;28;20027;-81
2023/04/02 08:40:06;;;;;;;6.10;1.40;;;9.30;99.90;;;;;;4966429;28;20038;-81
2023/04/02 08:43:09;;;;;;;1.30;1.17;;;9.40;99.90;;;;;;4969270;28;20071;-81
2023/04/02 08:45:56;;;;;;;2.20;1.10;;;9.40;99.90;;;;;;4921940;28;20069;-82
2023/04/02 08:48:23;;;;;;;2.85;0.98;;;9.40;99.90;;;;;;4966707;28;20035;-82
2023/04/02 08:50:49;;;;;;;1.00;1.00;;;9.40;99.90;;;;;;4975125;28;20039;-81
2023/04/02 08:53:23;;;;;;;1.77;0.95;;;9.40;99.90;;;;;;4969865;28;20042;-81
2023/04/02 08:56:04;;;;;;;1.00;1.00;;;9.50;99.90;;;;;;4965839;28;20031;-81
2023/04/02 08:58:48;;;;;;;1.85;1.10;;;9.50;99.90;;;;;;4976188;28;20031;-82
2023/04/02 09:01:46;;;;;;;4.60;1.00;;;9.40;99.90;;;;;;4970947;28;20070;-82
2023/04/02 09:04:23;;;;;;;0.75;0.75;;;9.40;99.90;;;;;;4967326;28;20106;-82
2023/04/02 09:06:53;;;;;;;3.70;1.27;;;9.60;99.90;;;;;;4967646;28;20109;-81
2023/04/02 09:09:21;;;;;;;1.50;0.98;;;9.60;99.90;;;;;;4972294;28;20042;-83
2023/04/02 09:11:55;;;;;;;1.25;0.90;;;9.70;99.90;;;;;;4967215;28;20147;-83
2023/04/02 09:14:34;;;;;;;1.45;1.25;;;9.70;99.90;;;;;;4973221;28;20045;-83
2023/04/02 09:17:02;;;;;;;1.15;1.05;;;9.70;99.90;;;;;;4965410;28;20032;-83
2023/04/02 09:19:39;;;;;;;1.23;1.00;;;9.60;99.90;;;;;;4977168;28;20189;-83
2023/04/02 09:22:19;;;;;;;0.80;0.80;;;9.70;99.90;;;;;;4965300;28;20035;-84
2023/04/02 09:24:51;;;;;;;1.35;0.90;;;9.80;99.90;;;;;;4972841;28;20047;-83
2023/04/02 09:27:19;;;;;;;0.98;0.90;;;9.70;99.90;;;;;;4968848;28;20596;-83
2023/04/02 09:29:48;;;;;;;1.75;0.98;;;9.70;99.90;;;;;;4975617;28;20035;-83
2023/04/02 09:32:49;;;;;;;0.98;0.98;;;9.50;99.90;;;;;;4980804;28;20049;-83
2023/04/02 09:35:24;;;;;;;2.60;1.00;;;9.70;99.90;;;;;;4974320;28;20081;-83
2023/04/02 09:38:08;;;;;;;1.00;0.93;;;9.70;99.90;;;;;;4966455;28;20035;-83
2023/04/02 09:41:04;;;;;;;0.80;0.80;;;9.60;99.90;;;;;;4990670;28;20034;-84
2023/04/02 09:43:30;;;;;;;1.08;1.00;;;9.50;99.90;;;;;;4956486;28;20040;-84
2023/04/02 09:46:23;;;;;;;0.90;0.90;;;9.40;99.90;;;;;;4967749;28;20035;-84
2023/04/02 09:48:52;;;;;;;1.00;1.00;;;9.50;99.90;;;;;;4966441;28;20411;-84
2023/04/02 09:51:21;;;;;;;1.50;1.00;;;9.40;99.90;;;;;;4967963;28;20534;-84
2023/04/02 09:54:00;;;;;;;1.42;1.25;;;9.20;99.90;;;;;;4972667;28;20019;-83
2023/04/02 09:56:26;;;;;;;1.10;1.10;;;9.40;99.90;;;;;;4973917;28;20070;-83
2023/04/02 09:59:14;;;;;;;1.17;1.08;;;9.50;99.90;;;;;;4978767;28;20038;-83
2023/04/02 10:01:46;;;;;;;2.13;0.90;;;9.70;99.90;;;;;;4977991;28;20042;-83
2023/04/02 10:04:46;;;;;;;1.20;1.10;;;9.70;99.90;;;;;;4974825;28;20051;-84
2023/04/02 10:07:35;;;;;;;0.80;0.80;;;10.00;99.90;;;;;;4961134;28;20121;-84
2023/04/02 10:10:16;;;;;;;2.33;1.10;;;10.10;99.90;;;;;;4967533;28;20037;-82
2023/04/02 10:12:44;;;;;;;1.23;1.13;;;9.90;99.90;;;;;;4976415;28;20039;-83
2023/04/02 10:15:24;;;;;;;1.50;1.38;;;10.00;99.90;;;;;;4974147;28;20034;-83
2023/04/02 10:18:02;;;;;;;1.08;1.05;;;9.70;99.90;;;;;;4971215;28;20043;-83
2023/04/02 10:20:30;;;;;;;2.40;1.15;;;9.70;99.90;;;;;;4971226;28;20035;-82
2023/04/02 10:22:55;;;;;;;1.73;1.48;;;9.70;99.90;;;;;;4970113;28;20061;-82
2023/04/02 10:25:25;;;;;;;1.27;1.10;;;10.00;99.90;;;;;;4965944;28;20118;-82
2023/04/02 10:28:18;;;;;;;1.05;0.93;;;10.20;99.90;;;;;;4980485;28;20034;-82
2023/04/02 10:31:21;;;;;;;1.83;0.98;;;10.20;99.90;;;;;;4974430;28;20054;-82
2023/04/02 10:33:54;;;;;;;1.00;1.00;;;10.30;99.90;;;;;;4911629;29;20044;-83
2023/04/02 10:36:51;;;;;;;1.10;1.10;;;10.40;99.90;;;;;;4966243;28;20043;-83
2023/04/02 10:39:22;;;;;;;1.20;1.10;;;10.50;99.90;;;;;;4971289;28;20042;-83
2023/04/02 10:41:51;;;;;;;1.20;0.85;;;10.50;99.90;;;;;;4968625;28;20694;-83
2023/04/02 10:44:40;;;;;;;;;;;10.60;99.90;;;;;;4965753;28;20054;-83
2023/04/02 10:47:15;;;;;;;1.92;0.98;;;10.70;99.90;;;;;;4960322;28;19923;-83
2023/04/02 10:49:53;;;;;;;1.48;1.10;;;10.80;99.90;;;;;;4971881;28;20102;-83
2023/04/02 10:52:25;;;;;;;2.42;1.55;;;11.00;99.90;;;;;;4970678;28;20020;-83
2023/04/02 10:54:56;;;;;;;0.85;0.77;;;10.90;99.90;;;;;;4971731;28;20023;-83
2023/04/02 10:57:27;;;;;;;1.10;0.93;;;10.90;99.90;;;;;;4970060;28;20035;-83
2023/04/02 11:00:14;;;;;;;0.80;0.80;;;10.90;99.90;;;;;;4964904;28;20483;-83
2023/04/02 11:02:45;;;;;;;0.90;0.90;;;10.90;99.90;;;;;;4960999;28;20050;-82
2023/04/02 11:05:42;;;;;;;0.90;0.90;;;11.00;99.90;;;;;;4969472;28;20043;-84
2023/04/02 11:08:16;;;;;;;0.77;0.77;;;10.90;99.90;;;;;;5001142;28;20629;-85
2023/04/02 11:10:56;;;;;;;1.20;1.10;;;10.90;99.90;;;;;;4971788;28;20024;-82
2023/04/02 11:13:30;;;;;;;1.08;0.88;;;11.00;99.90;;;;;;4972877;28;20035;-86
2023/04/02 11:15:56;;;;;;;0.95;0.95;;;11.00;99.90;;;;;;4969600;28;20063;-84
2023/04/02 11:18:31;;;;;;;1.00;1.00;;;10.90;99.90;;;;;;4973521;28;20304;-85
2023/04/02 11:21:00;;;;;;;1.17;1.00;;;10.90;99.90;;;;;;4972658;28;20054;-83
2023/04/02 11:23:29;;;;;;;1.08;0.98;;;10.70;99.90;;;;;;4964788;28;20528;-86
2023/04/02 11:26:37;;;;;;;1.17;1.05;;;10.70;99.90;;;;;;4965535;28;20524;-85
2023/04/02 11:29:18;;;;;;;2.60;1.40;;;10.70;99.90;;;;;;4976039;28;20043;-89
2023/04/02 11:31:45;;;;;;;1.40;1.30;;;10.90;99.90;;;;;;4968487;28;20047;-89
2023/04/02 11:34:39;;;;;;;1.63;1.52;;;10.90;99.90;;;;;;4975254;28;20039;-88
2023/04/02 11:37:09;;;;;;;1.48;1.35;;;11.00;99.90;;;;;;4948103;28;20047;-85
2023/04/02 11:40:09;;;;;;;1.30;1.20;;;11.10;99.90;;;;;;4972664;28;20042;-88
2023/04/02 11:42:39;;;;;;;1.83;1.55;;;11.50;99.90;;;;;;4921606;28;20035;-89
2023/04/02 11:45:25;;;;;;;1.23;1.20;;;12.00;99.90;;;;;;4967995;28;20042;-86
2023/04/02 11:48:00;;;;;;;1.20;1.20;;;11.90;99.90;;;;;;4981969;28;20032;-86
2023/04/02 11:50:40;;;;;;;1.40;1.30;;;11.70;99.90;;;;;;4960851;28;20031;-88
2023/04/02 11:53:13;;;;;;;1.30;1.20;;;11.90;99.90;;;;;;4965344;28;20035;-87
2023/04/02 11:55:41;;;;;;;1.23;1.10;;;11.80;99.90;;;;;;4967738;28;20090;-91
2023/04/02 11:58:28;;;;;;;1.10;1.03;;;11.80;99.90;;;;;;4968413;28;20042;-86
2023/04/02 12:01:13;;;;;;;2.05;1.60;;;11.80;99.90;;;;;;4973925;28;20286;-85
2023/04/02 12:04:09;;;;;;;1.30;1.30;;;11.60;99.90;;;;;;4974327;28;20204;-88
2023/04/02 12:06:54;;;;;;;1.30;1.20;;;11.50;99.90;;;;;;4965737;28;20051;-87
2023/04/02 12:09:22;;;;;;;1.10;1.10;;;11.70;99.90;;;;;;4969604;28;20027;-87
2023/04/02 12:11:49;;;;;;;;;;;11.90;99.90;;;;;;4964485;28;20047;-86
2023/04/02 12:14:45;;;;;;;1.20;1.10;;;11.90;99.90;;;;;;4968464;28;19969;-86
2023/04/02 12:17:26;;;;;;;1.00;0.90;;;11.70;99.90;;;;;;4968599;28;20035;-87
2023/04/02 12:20:19;;;;;;;0.88;0.88;;;11.80;99.90;;;;;;4971620;28;20034;-87
2023/04/02 12:22:50;;;;;;;1.13;1.00;;;12.00;99.90;;;;;;4968608;28;20031;-86
2023/04/02 12:25:39;;;;;;;0.93;0.93;;;11.90;99.90;;;;;;4972005;28;20071;-86
2023/04/02 12:28:19;;;;;;;1.20;1.10;;;11.90;99.90;;;;;;4969412;28;20039;-88
2023/04/02 12:30:46;;;;;;;1.33;1.23;;;11.60;99.90;;;;;;4962823;28;20077;-85
2023/04/02 12:33:15;;;;;;;1.13;1.08;;;11.70;99.90;;;;;;4963755;28;20038;-86
2023/04/02 12:35:43;;;;;;;0.90;0.90;;;11.60;99.90;;;;;;4963900;28;20039;-86
2023/04/02 12:38:22;;;;;;;1.33;1.08;;;11.80;99.90;;;;;;4972261;28;20039;-85
2023/04/02 12:41:25;;;;;;;1.10;1.00;;;12.10;99.90;;;;;;4960671;28;20118;-86
2023/04/02 12:44:20;;;;;;;1.58;1.20;;;12.40;99.90;;;;;;4975454;28;20273;-88
2023/04/02 12:46:48;;;;;;;2.75;1.00;;;12.40;99.90;;;;;;4964384;28;20123;-88
2023/04/02 12:49:37;;;;;;;0.88;0.88;;;12.40;99.90;;;;;;4961257;28;20109;-92
2023/04/02 12:52:16;;;;;;;1.70;1.00;;;12.40;99.90;;;;;;4966187;29;20027;-86
2023/04/02 12:54:52;;;;;;;1.13;0.80;;;12.40;99.90;;;;;;4964947;28;20027;-83
2023/04/02 12:57:38;;;;;;;1.17;0.82;;;12.30;99.90;;;;;;4964932;28;20022;-84
2023/04/02 13:00:19;;;;;;;0.95;0.95;;;11.90;99.90;;;;;;4962304;28;20030;-84
2023/04/02 13:02:49;;;;;;;1.17;0.60;;;11.30;99.90;;;;;;4994226;28;20299;-85
2023/04/02 13:05:36;;;;;;;1.15;0.82;;;11.10;99.90;;;;;;4979360;28;20031;-84
2023/04/02 13:08:04;;;;;;;0.88;0.88;;;10.90;99.90;;;;;;4987980;28;20054;-86
2023/04/02 13:10:30;;;;;;;1.33;1.23;;;10.80;99.90;;;;;;4983901;28;20026;-85
2023/04/02 13:12:58;;;;;;;2.30;0.80;;;10.60;99.90;;;;;;4993425;28;20091;-84
2023/04/02 13:15:31;;;;;;;0.75;0.60;;;10.60;99.90;;;;;;4987681;28;20026;-87
2023/04/02 13:18:05;;;;;;;0.60;0.60;;;10.40;99.90;;;;;;4989311;28;20030;-93
2023/04/02 13:20:39;;;;;;;0.50;0.50;;;10.30;99.90;;;;;;5015976;28;20053;-93
2023/04/02 13:23:32;;;;;;;0.70;0.70;;;10.20;99.90;;;;;;4990411;28;20070;-88
2023/04/02 13:26:01;;;;;;;2.15;0.70;;;10.10;99.90;;;;;;4984611;28;20047;-78
2023/04/02 13:28:28;;;;;;;1.35;0.70;;;10.10;99.90;;;;;;4983944;28;20562;-83
2023/04/02 13:30:54;;;;;;;1.10;0.60;;;10.10;99.90;;;;;;4985666;28;20066;-85
2023/04/02 13:33:21;;;;;;;0.70;0.70;;;9.90;99.90;;;;;;4990334;28;20031;-84
2023/04/02 13:35:46;;;;;;;0.60;0.60;;;9.60;99.90;;;;;;4986178;28;20039;-84
2023/04/02 13:38:15;;;;;;;0.47;0.47;;;9.40;99.90;;;;;;4994834;28;20038;-84